Time;durP1;ratioP1;P1;durP2;ratioP2;P2;SDS_P1;SDS_P2;PMS_P1;PMS_P2;Temp;Humidity;BMP_temperature;BMP_pressure;BME280_temperature;BME280_humidity;BME280_pressure;Samples;Min_cycle;Max_cycle;Signal;HPM_P1;HPM_P2
2023/03/02 00:01:36;;;;;;;20.57;13.37;;;1.80;99.90;;;;;;5116253;28;20167;-70
2023/03/02 00:04:04;;;;;;;25.67;13.47;;;1.80;99.90;;;;;;5116316;28;20639;-70
2023/03/02 00:06:31;;;;;;;24.83;14.40;;;1.80;99.90;;;;;;5116073;28;20182;-70
2023/03/02 00:09:01;;;;;;;22.37;14.63;;;1.70;99.90;;;;;;5116309;28;20182;-69
2023/03/02 00:11:29;;;;;;;20.40;13.73;;;1.80;99.90;;;;;;5116174;28;20253;-69
2023/03/02 00:13:55;;;;;;;24.93;14.27;;;1.70;99.90;;;;;;5115532;28;20265;-69
2023/03/02 00:16:20;;;;;;;20.57;13.47;;;1.80;99.90;;;;;;5116094;28;20206;-69
2023/03/02 00:18:46;;;;;;;19.50;12.07;;;1.70;99.90;;;;;;5116177;28;20652;-69
2023/03/02 00:21:11;;;;;;;32.03;13.33;;;1.70;99.90;;;;;;5116096;28;20596;-69
2023/03/02 00:23:37;;;;;;;19.67;13.30;;;1.60;99.90;;;;;;5115650;28;20279;-69
2023/03/02 00:26:04;;;;;;;20.57;13.67;;;1.60;99.90;;;;;;5115428;28;20175;-70
2023/03/02 00:28:30;;;;;;;24.93;13.20;;;1.60;99.90;;;;;;5115750;28;20163;-69
2023/03/02 00:30:56;;;;;;;19.50;12.77;;;1.60;99.90;;;;;;5097577;28;20729;-70
2023/03/02 00:33:22;;;;;;;17.93;12.70;;;1.60;99.90;;;;;;5115882;28;20194;-67
2023/03/02 00:35:47;;;;;;;18.97;12.23;;;1.60;99.90;;;;;;5115662;28;20178;-70
2023/03/02 00:38:13;;;;;;;19.63;12.30;;;1.60;99.90;;;;;;5115050;28;20170;-69
2023/03/02 00:40:49;;;;;;;19.00;12.83;;;1.50;99.90;;;;;;5115316;28;20178;-69
2023/03/02 00:43:16;;;;;;;20.87;13.13;;;1.50;99.90;;;;;;5115753;28;20213;-70
2023/03/02 00:45:41;;;;;;;17.90;12.73;;;1.50;99.90;;;;;;5115368;28;20191;-69
2023/03/02 00:48:07;;;;;;;20.83;12.27;;;1.50;99.90;;;;;;5115539;28;20610;-69
2023/03/02 00:50:39;;;;;;;21.27;13.53;;;1.50;99.90;;;;;;5115510;28;20193;-69
2023/03/02 00:53:07;;;;;;;20.30;13.00;;;1.50;99.90;;;;;;5115401;28;20203;-70
2023/03/02 00:55:33;;;;;;;19.03;13.10;;;1.50;99.90;;;;;;5114908;28;20215;-68
2023/03/02 00:57:59;;;;;;;18.13;12.87;;;1.50;99.90;;;;;;5115500;28;20521;-70
2023/03/02 01:00:27;;;;;;;20.37;12.40;;;1.50;99.90;;;;;;5115151;28;20515;-70
2023/03/02 01:02:53;;;;;;;18.67;12.80;;;1.40;99.90;;;;;;5115103;28;20199;-69
2023/03/02 01:05:19;;;;;;;21.63;12.57;;;1.30;99.90;;;;;;5115160;28;20178;-70
2023/03/02 01:07:45;;;;;;;19.03;12.47;;;1.40;99.90;;;;;;5115233;28;20541;-69
2023/03/02 01:10:11;;;;;;;20.03;12.53;;;1.30;99.90;;;;;;5114678;28;20169;-70
2023/03/02 01:12:37;;;;;;;19.17;12.40;;;1.30;99.90;;;;;;5115043;28;20175;-69
2023/03/02 01:15:04;;;;;;;17.07;11.87;;;1.30;99.90;;;;;;5115109;28;20199;-70
2023/03/02 01:17:30;;;;;;;17.10;11.57;;;1.30;99.90;;;;;;5114961;28;20170;-69
2023/03/02 01:19:56;;;;;;;19.10;11.97;;;1.30;99.90;;;;;;5114937;28;20231;-69
2023/03/02 01:22:22;;;;;;;17.27;12.20;;;1.20;99.90;;;;;;5114578;28;20555;-69
2023/03/02 01:24:48;;;;;;;24.47;11.80;;;1.20;99.90;;;;;;5114227;28;20202;-69
2023/03/02 01:27:14;;;;;;;20.43;11.93;;;1.30;99.90;;;;;;5114825;28;20170;-69
2023/03/02 01:29:40;;;;;;;19.83;11.87;;;1.20;99.90;;;;;;5115038;28;20167;-68
2023/03/02 01:32:05;;;;;;;21.43;11.67;;;1.30;99.90;;;;;;5114654;28;20641;-69
2023/03/02 01:34:31;;;;;;;17.27;11.07;;;1.20;99.90;;;;;;5114578;28;20618;-69
2023/03/02 01:36:57;;;;;;;17.77;11.70;;;1.20;99.90;;;;;;5114482;28;20201;-70
2023/03/02 01:39:22;;;;;;;24.10;10.90;;;1.20;99.90;;;;;;5113954;28;20594;-69
2023/03/02 01:41:50;;;;;;;18.43;10.67;;;1.20;99.90;;;;;;5114276;28;20166;-69
2023/03/02 01:44:45;;;;;;;15.13;10.90;;;1.20;99.90;;;;;;5114390;28;20208;-69
2023/03/02 01:47:21;;;;;;;17.00;11.23;;;1.20;99.90;;;;;;5114393;28;20298;-68
2023/03/02 01:50:10;;;;;;;20.47;11.50;;;1.10;99.90;;;;;;5113463;28;20166;-70
2023/03/02 01:52:39;;;;;;;18.07;11.10;;;1.10;99.90;;;;;;5100678;28;20213;-69
2023/03/02 01:55:07;;;;;;;16.03;10.93;;;1.00;99.90;;;;;;5113760;28;20272;-69
2023/03/02 01:57:42;;;;;;;21.50;11.10;;;1.00;99.90;;;;;;5114202;28;20172;-69
2023/03/02 02:00:13;;;;;;;15.83;11.03;;;1.00;99.90;;;;;;5096580;28;20172;-69
2023/03/02 02:02:40;;;;;;;14.80;10.83;;;1.00;99.90;;;;;;5113933;28;20209;-70
2023/03/02 02:05:09;;;;;;;15.60;10.50;;;1.00;99.90;;;;;;5113930;28;20158;-69
2023/03/02 02:07:36;;;;;;;15.17;10.60;;;1.00;99.90;;;;;;5113781;28;20261;-70
2023/03/02 02:10:02;;;;;;;17.63;11.20;;;0.90;99.90;;;;;;5113997;28;20163;-69
2023/03/02 02:12:27;;;;;;;17.17;11.67;;;0.90;99.90;;;;;;5113834;28;20180;-69
2023/03/02 02:14:59;;;;;;;14.80;10.53;;;0.90;99.90;;;;;;5113826;28;20167;-69
2023/03/02 02:17:26;;;;;;;10.13;7.50;;;0.90;99.90;;;;;;5113766;28;20636;-68
2023/03/02 02:20:06;;;;;;;15.00;10.30;;;0.90;99.90;;;;;;5113764;28;20537;-69
2023/03/02 02:22:37;;;;;;;16.57;10.60;;;0.90;99.90;;;;;;5113239;28;20298;-69
2023/03/02 02:25:10;;;;;;;16.13;11.13;;;0.80;99.90;;;;;;5113663;28;20628;-69
2023/03/02 02:27:36;;;;;;;16.27;10.53;;;0.80;99.90;;;;;;5113925;28;20196;-69
2023/03/02 02:30:05;;;;;;;15.00;11.10;;;0.80;99.90;;;;;;5113622;28;20202;-68
2023/03/02 02:32:35;;;;;;;17.20;10.50;;;0.80;99.90;;;;;;5113541;28;20166;-69
2023/03/02 02:35:10;;;;;;;17.93;11.20;;;0.80;99.90;;;;;;5113719;28;20161;-69
2023/03/02 02:37:43;;;;;;;17.63;11.47;;;0.80;99.90;;;;;;5113255;28;20167;-69
2023/03/02 02:40:20;;;;;;;18.07;11.07;;;0.80;99.90;;;;;;5113772;28;20240;-69
2023/03/02 02:42:49;;;;;;;16.07;10.37;;;0.70;99.90;;;;;;5113517;28;20176;-69
2023/03/02 02:45:24;;;;;;;15.60;10.90;;;0.70;99.90;;;;;;5113708;28;20189;-69
2023/03/02 02:47:51;;;;;;;15.63;10.10;;;0.70;99.90;;;;;;5113684;28;20168;-68
2023/03/02 02:50:20;;;;;;;16.80;10.50;;;0.70;99.90;;;;;;5113443;28;20171;-69
2023/03/02 02:52:52;;;;;;;14.90;10.53;;;0.60;99.90;;;;;;5113245;28;20196;-69
2023/03/02 02:55:22;;;;;;;15.33;10.43;;;0.60;99.90;;;;;;5113408;28;20208;-69
2023/03/02 02:57:49;;;;;;;14.13;10.37;;;0.60;99.90;;;;;;5113372;28;20174;-69
2023/03/02 03:00:19;;;;;;;13.17;9.40;;;0.60;99.90;;;;;;5114092;28;20177;-69
2023/03/02 03:02:50;;;;;;;18.37;11.13;;;0.60;99.90;;;;;;5117360;28;20192;-69
2023/03/02 03:05:16;;;;;;;16.63;10.67;;;0.60;99.90;;;;;;5117530;28;20167;-69
2023/03/02 03:07:42;;;;;;;18.57;11.20;;;0.60;99.90;;;;;;5117202;28;20166;-69
2023/03/02 03:10:33;;;;;;;17.27;10.57;;;0.50;99.90;;;;;;5117367;28;20176;-69
2023/03/02 03:13:00;;;;;;;16.20;11.27;;;0.60;99.90;;;;;;5117275;28;20225;-69
2023/03/02 03:15:25;;;;;;;15.13;10.17;;;0.50;99.90;;;;;;5117149;28;20167;-69
2023/03/02 03:17:56;;;;;;;15.80;10.80;;;0.50;99.90;;;;;;5117377;28;20169;-69
2023/03/02 03:20:23;;;;;;;16.87;10.90;;;0.50;99.90;;;;;;5117023;28;20164;-69
2023/03/02 03:22:52;;;;;;;16.83;10.70;;;0.50;99.90;;;;;;5116828;28;20226;-69
2023/03/02 03:25:18;;;;;;;14.03;10.10;;;0.50;99.90;;;;;;5116992;28;20199;-69
2023/03/02 03:27:44;;;;;;;21.57;11.67;;;0.40;99.90;;;;;;5116980;28;20184;-68
2023/03/02 03:30:12;;;;;;;17.30;10.93;;;0.40;99.90;;;;;;5098664;28;20511;-68
2023/03/02 03:32:38;;;;;;;17.37;10.80;;;0.40;99.90;;;;;;5117083;28;20168;-69
2023/03/02 03:35:07;;;;;;;16.47;10.63;;;0.50;99.90;;;;;;5116561;28;20177;-69
2023/03/02 03:37:33;;;;;;;16.17;11.10;;;0.40;99.90;;;;;;5116778;28;20175;-69
2023/03/02 03:39:59;;;;;;;16.77;11.03;;;0.40;99.90;;;;;;5116574;28;20179;-69
2023/03/02 03:42:25;;;;;;;18.03;11.83;;;0.40;99.90;;;;;;5116722;28;20230;-68
2023/03/02 03:44:51;;;;;;;15.40;11.43;;;0.40;99.90;;;;;;5116640;28;20209;-69
2023/03/02 03:47:16;;;;;;;17.77;11.13;;;0.40;99.90;;;;;;5116702;28;20623;-70
2023/03/02 03:49:42;;;;;;;20.13;11.83;;;0.40;99.90;;;;;;5116565;28;20644;-70
2023/03/02 03:52:08;;;;;;;17.63;11.53;;;0.40;99.90;;;;;;5116579;28;20179;-69
2023/03/02 03:54:33;;;;;;;19.17;11.07;;;0.30;99.90;;;;;;5116065;28;20640;-69
2023/03/02 03:56:59;;;;;;;16.40;11.33;;;0.30;99.90;;;;;;5116715;28;20250;-69
2023/03/02 03:59:25;;;;;;;14.47;10.83;;;0.30;99.90;;;;;;5116639;28;20269;-70
2023/03/02 04:01:57;;;;;;;15.50;11.30;;;0.30;99.90;;;;;;5116582;28;20171;-69
2023/03/02 04:04:28;;;;;;;15.63;11.07;;;0.30;99.90;;;;;;5115754;28;20207;-69
2023/03/02 04:06:54;;;;;;;16.37;10.90;;;0.30;99.90;;;;;;5116347;28;20167;-69
2023/03/02 04:09:21;;;;;;;16.87;11.23;;;0.30;99.90;;;;;;5116075;28;20256;-69
2023/03/02 04:11:50;;;;;;;18.73;11.60;;;0.30;99.90;;;;;;5114878;28;20171;-69
2023/03/02 04:14:17;;;;;;;15.30;10.03;;;0.30;99.90;;;;;;5115951;28;20183;-69
2023/03/02 04:16:43;;;;;;;15.57;10.97;;;0.30;99.90;;;;;;5116070;28;20260;-69
2023/03/02 04:19:10;;;;;;;16.83;10.70;;;0.20;99.90;;;;;;5115649;28;20266;-68
2023/03/02 04:21:41;;;;;;;19.47;11.40;;;0.20;99.90;;;;;;5115506;28;20309;-70
2023/03/02 04:24:08;;;;;;;15.10;11.03;;;0.20;99.90;;;;;;5115726;28;20235;-69
2023/03/02 04:26:35;;;;;;;16.90;11.30;;;0.20;99.90;;;;;;5116049;28;20642;-68
2023/03/02 04:29:01;;;;;;;18.10;11.47;;;0.20;99.90;;;;;;5115731;28;20204;-68
2023/03/02 04:31:27;;;;;;;18.13;11.60;;;0.20;99.90;;;;;;5115842;28;20203;-69
2023/03/02 04:33:52;;;;;;;16.67;11.43;;;0.20;99.90;;;;;;5115241;28;20175;-70
2023/03/02 04:36:18;;;;;;;22.07;11.30;;;0.30;99.90;;;;;;5115568;28;20178;-69
2023/03/02 04:38:45;;;;;;;21.80;11.07;;;0.20;99.90;;;;;;5115725;28;20175;-69
2023/03/02 04:41:10;;;;;;;17.03;11.00;;;0.20;99.90;;;;;;5115488;28;20187;-69
2023/03/02 04:43:36;;;;;;;16.23;11.40;;;0.20;99.90;;;;;;5115314;28;20743;-69
2023/03/02 04:46:02;;;;;;;16.30;11.70;;;0.20;99.90;;;;;;5115406;28;20161;-69
2023/03/02 04:48:28;;;;;;;18.93;10.90;;;0.10;99.90;;;;;;5114874;28;20171;-70
2023/03/02 04:50:53;;;;;;;18.93;10.37;;;0.10;99.90;;;;;;5115358;28;20165;-69
2023/03/02 04:53:19;;;;;;;18.10;10.67;;;0.10;99.90;;;;;;5114800;28;20173;-68
2023/03/02 04:55:45;;;;;;;19.33;10.30;;;0.20;99.90;;;;;;5115206;28;20155;-68
2023/03/02 04:58:10;;;;;;;18.30;10.47;;;0.20;99.90;;;;;;5115026;28;20186;-68
2023/03/02 05:00:36;;;;;;;20.63;11.43;;;0.10;99.90;;;;;;5115226;28;20615;-69
2023/03/02 05:03:02;;;;;;;23.67;11.03;;;0.10;99.90;;;;;;5114706;28;20199;-69
2023/03/02 05:05:29;;;;;;;18.97;10.77;;;0.00;99.90;;;;;;5114690;28;20579;-69
2023/03/02 05:07:57;;;;;;;15.37;10.37;;;0.00;99.90;;;;;;5115073;28;20219;-69
2023/03/02 05:10:23;;;;;;;17.97;11.63;;;0.00;99.90;;;;;;5114684;28;20174;-69
2023/03/02 05:13:01;;;;;;;19.20;11.53;;;0.10;99.90;;;;;;5114418;28;20254;-70
2023/03/02 05:15:33;;;;;;;17.73;10.90;;;0.10;99.90;;;;;;5114965;28;20191;-69
2023/03/02 05:17:59;;;;;;;16.10;10.37;;;0.10;99.90;;;;;;5114197;28;20175;-69
2023/03/02 05:20:28;;;;;;;19.70;11.57;;;0.00;99.90;;;;;;5114473;28;20243;-69
2023/03/02 05:22:56;;;;;;;18.27;10.80;;;0.00;99.90;;;;;;5114311;28;20315;-70
2023/03/02 05:25:23;;;;;;;16.63;10.50;;;0.00;99.90;;;;;;5114374;28;20172;-68
2023/03/02 05:27:48;;;;;;;18.00;10.13;;;0.00;99.90;;;;;;5114291;28;20179;-69
2023/03/02 05:30:14;;;;;;;19.57;10.83;;;0.00;99.90;;;;;;5114534;28;20176;-68
2023/03/02 05:32:40;;;;;;;20.00;10.50;;;-0.10;99.90;;;;;;5113902;28;20258;-69
2023/03/02 05:35:06;;;;;;;16.37;10.40;;;-0.10;99.90;;;;;;5114660;28;20171;-68
2023/03/02 05:37:31;;;;;;;16.67;10.80;;;-0.10;99.90;;;;;;5114120;28;20183;-70
2023/03/02 05:39:57;;;;;;;16.47;9.93;;;-0.10;99.90;;;;;;5113903;28;20182;-69
2023/03/02 05:42:23;;;;;;;18.13;10.27;;;-0.10;99.90;;;;;;5114243;28;20232;-69
2023/03/02 05:44:48;;;;;;;18.60;10.17;;;-0.10;99.90;;;;;;5113994;28;20746;-69
2023/03/02 05:47:14;;;;;;;16.23;9.93;;;-0.20;99.90;;;;;;5113712;28;20169;-69
2023/03/02 05:49:39;;;;;;;21.77;10.37;;;-0.20;99.90;;;;;;5114112;28;20214;-69
2023/03/02 05:52:05;;;;;;;20.30;11.10;;;-0.20;99.90;;;;;;5113574;28;20281;-69
2023/03/02 05:54:31;;;;;;;25.83;11.20;;;-0.20;99.90;;;;;;5113647;28;20220;-69
2023/03/02 05:56:57;;;;;;;21.23;11.27;;;-0.20;99.90;;;;;;5113972;28;20572;-69
2023/03/02 05:59:22;;;;;;;18.17;10.73;;;-0.20;99.90;;;;;;5113649;28;20179;-69
2023/03/02 06:01:48;;;;;;;18.37;10.70;;;-0.20;99.90;;;;;;5113120;28;20244;-69
2023/03/02 06:04:14;;;;;;;25.23;11.03;;;-0.20;99.90;;;;;;5113400;28;20240;-69
2023/03/02 06:06:40;;;;;;;16.57;10.37;;;-0.20;99.90;;;;;;5113553;28;20231;-69
2023/03/02 06:09:05;;;;;;;23.43;11.07;;;-0.20;99.90;;;;;;5113695;28;20638;-69
2023/03/02 06:11:31;;;;;;;19.63;10.93;;;-0.20;99.90;;;;;;5113007;28;20199;-69
2023/03/02 06:13:56;;;;;;;17.70;10.93;;;-0.10;99.90;;;;;;5113404;28;20177;-70
2023/03/02 06:16:22;;;;;;;18.30;11.10;;;-0.10;99.90;;;;;;5113219;28;20171;-68
2023/03/02 06:18:48;;;;;;;22.40;10.50;;;-0.10;99.90;;;;;;5113553;28;20176;-70
2023/03/02 06:21:13;;;;;;;24.77;11.37;;;-0.20;99.90;;;;;;5113276;28;20548;-69
2023/03/02 06:23:39;;;;;;;22.70;11.00;;;-0.20;99.90;;;;;;5112914;28;20348;-69
2023/03/02 06:26:09;;;;;;;22.27;10.10;;;-0.20;99.90;;;;;;5113131;28;20627;-69
2023/03/02 06:28:35;;;;;;;21.97;10.33;;;-0.10;99.90;;;;;;5112636;28;20182;-69
2023/03/02 06:31:01;;;;;;;22.30;11.37;;;-0.10;99.90;;;;;;5113165;28;20221;-70
2023/03/02 06:33:26;;;;;;;15.90;10.10;;;-0.10;99.90;;;;;;5113251;28;20687;-69
2023/03/02 06:35:52;;;;;;;22.63;10.60;;;-0.20;99.90;;;;;;5112751;28;20191;-70
2023/03/02 06:38:18;;;;;;;28.23;11.40;;;-0.20;99.90;;;;;;5113235;28;20178;-70
2023/03/02 06:40:44;;;;;;;17.93;10.20;;;-0.20;99.90;;;;;;5113067;28;20323;-69
2023/03/02 06:43:09;;;;;;;23.93;11.90;;;-0.20;99.90;;;;;;5111935;28;20666;-70
2023/03/02 06:45:36;;;;;;;21.60;10.23;;;-0.10;99.90;;;;;;5112396;28;20195;-69
2023/03/02 06:48:02;;;;;;;18.63;11.03;;;-0.10;99.90;;;;;;5113222;28;20213;-69
2023/03/02 06:50:28;;;;;;;16.00;10.17;;;-0.10;99.90;;;;;;5112396;28;20285;-70
2023/03/02 06:52:54;;;;;;;19.87;10.33;;;-0.10;99.90;;;;;;5112793;28;20180;-70
2023/03/02 06:55:20;;;;;;;17.57;10.63;;;0.00;99.90;;;;;;5112639;28;20264;-68
2023/03/02 06:57:46;;;;;;;16.50;10.10;;;0.00;99.90;;;;;;5112481;28;20199;-71
2023/03/02 07:00:15;;;;;;;20.07;10.37;;;0.00;99.90;;;;;;5111930;28;20721;-70
2023/03/02 07:02:42;;;;;;;14.10;8.37;;;0.10;99.90;;;;;;5112522;28;20198;-69
2023/03/02 07:05:08;;;;;;;23.70;10.90;;;0.20;99.90;;;;;;5112347;28;20181;-68
2023/03/02 07:07:33;;;;;;;17.17;10.67;;;0.20;99.90;;;;;;5112894;28;20512;-69
2023/03/02 07:09:59;;;;;;;18.50;11.20;;;0.20;99.90;;;;;;5112614;28;20175;-69
2023/03/02 07:12:24;;;;;;;17.20;10.77;;;0.30;99.90;;;;;;5112499;28;20245;-69
2023/03/02 07:14:50;;;;;;;17.20;9.00;;;0.40;99.90;;;;;;5112687;28;20174;-69
2023/03/02 07:17:16;;;;;;;21.00;11.60;;;0.50;99.90;;;;;;5112493;28;20177;-69
2023/03/02 07:19:41;;;;;;;19.00;10.57;;;0.80;99.90;;;;;;5111968;28;20585;-69
2023/03/02 07:22:07;;;;;;;16.60;10.83;;;1.30;99.90;;;;;;5111550;28;20577;-69
2023/03/02 07:24:33;;;;;;;23.70;11.40;;;2.10;99.90;;;;;;5112384;28;20211;-67
2023/03/02 07:26:59;;;;;;;17.67;10.97;;;3.00;99.90;;;;;;5111033;28;20180;-67
2023/03/02 07:29:24;;;;;;;19.03;10.90;;;3.60;99.90;;;;;;5111600;28;20210;-67
2023/03/02 07:31:55;;;;;;;17.47;10.63;;;3.90;99.90;;;;;;5112227;28;20182;-67
2023/03/02 07:34:24;;;;;;;18.57;9.97;;;4.10;99.90;;;;;;5112089;28;20175;-68
2023/03/02 07:36:51;;;;;;;17.20;10.10;;;4.60;99.90;;;;;;5111885;28;20225;-68
2023/03/02 07:39:17;;;;;;;16.03;8.50;;;5.00;99.90;;;;;;5112314;28;20258;-68
2023/03/02 07:41:42;;;;;;;18.17;10.33;;;4.90;99.30;;;;;;5111739;28;20175;-68
2023/03/02 07:44:08;;;;;;;16.20;8.90;;;5.00;99.70;;;;;;5112075;28;20206;-68
2023/03/02 07:46:34;;;;;;;18.57;11.10;;;5.10;99.30;;;;;;5111850;28;20611;-68
2023/03/02 07:48:59;;;;;;;18.90;11.13;;;5.70;99.30;;;;;;5115605;28;20630;-68
2023/03/02 07:51:25;;;;;;;16.87;10.63;;;6.60;96.20;;;;;;5115238;28;20164;-69
2023/03/02 07:53:51;;;;;;;16.63;9.50;;;7.00;99.90;;;;;;5115373;28;20183;-68
2023/03/02 07:56:16;;;;;;;12.83;8.87;;;6.80;99.90;;;;;;5115133;28;20171;-67
2023/03/02 07:58:42;;;;;;;20.07;11.50;;;6.10;99.90;;;;;;5113839;28;20183;-69
2023/03/02 08:01:08;;;;;;;16.33;11.07;;;6.30;1.00;;;;;;5097764;28;20630;-70
2023/03/02 08:03:34;;;;;;;15.43;10.63;;;6.50;99.90;;;;;;5109135;27;20426;-70
2023/03/02 08:06:05;;;;;;;16.47;10.73;;;6.60;99.90;;;;;;5096126;28;20232;-70
2023/03/02 08:08:31;;;;;;;15.33;11.37;;;6.70;99.90;;;;;;5105566;28;20669;-71
2023/03/02 08:11:04;;;;;;;17.20;11.17;;;6.70;99.90;;;;;;5101485;28;20172;-71
2023/03/02 08:13:29;;;;;;;14.43;10.87;;;6.90;99.90;;;;;;5109468;28;20187;-72
2023/03/02 08:16:03;;;;;;;16.13;10.97;;;7.30;99.90;;;;;;5114976;28;20259;-72
2023/03/02 08:18:28;;;;;;;16.83;12.57;;;8.00;1.00;;;;;;5092762;28;20416;-69
2023/03/02 08:20:54;;;;;;;16.93;11.03;;;8.20;1.00;;;;;;5101575;28;20172;-68
2023/03/02 08:23:21;;;;;;;14.87;10.73;;;8.00;1.00;;;;;;5100800;28;20227;-68
2023/03/02 08:25:47;;;;;;;16.70;10.73;;;7.80;1.00;;;;;;5098387;28;20175;-69
2023/03/02 08:28:13;;;;;;;15.50;11.10;;;7.90;1.00;;;;;;5111364;28;20665;-70
2023/03/02 08:30:38;;;;;;;14.30;10.37;;;7.90;1.00;;;;;;5096407;28;20653;-70
2023/03/02 08:33:04;;;;;;;12.80;10.03;;;8.00;1.00;;;;;;5097103;28;20502;-69
2023/03/02 08:35:30;;;;;;;11.77;9.80;;;7.70;1.00;;;;;;5107051;28;20662;-71
2023/03/02 08:37:55;;;;;;;13.90;10.23;;;7.60;1.00;;;;;;5092620;28;20180;-71
2023/03/02 08:40:21;;;;;;;14.77;10.93;;;7.50;1.00;;;;;;5108591;28;20711;-69
2023/03/02 08:42:48;;;;;;;14.20;10.73;;;8.00;1.00;;;;;;5096308;28;20168;-70
2023/03/02 08:45:14;;;;;;;15.13;10.73;;;8.50;1.00;;;;;;5108768;28;20179;-69
2023/03/02 08:47:40;;;;;;;10.77;8.57;;;9.10;1.00;;;;;;5102309;28;20171;-69
2023/03/02 08:50:05;;;;;;;15.73;10.17;;;9.20;1.00;;;;;;5101300;28;20607;-69
2023/03/02 08:52:34;;;;;;;15.53;10.60;;;8.50;1.00;;;;;;5108041;28;20492;-69
2023/03/02 08:55:00;;;;;;;17.03;9.93;;;8.60;1.00;;;;;;5073676;28;20176;-69
2023/03/02 08:57:25;;;;;;;14.80;10.60;;;8.30;1.00;;;;;;5099803;28;20179;-67
2023/03/02 08:59:51;;;;;;;16.63;11.13;;;8.30;1.00;;;;;;5113019;28;20183;-70
2023/03/02 09:02:17;;;;;;;14.60;10.20;;;7.90;1.00;;;;;;5106222;28;20199;-68
2023/03/02 09:04:43;;;;;;;13.73;9.73;;;8.60;1.00;;;;;;5106010;28;20272;-67
2023/03/02 09:07:09;;;;;;;13.53;10.70;;;8.30;1.00;;;;;;5112912;28;20179;-68
2023/03/02 09:09:35;;;;;;;13.97;11.07;;;8.30;1.00;;;;;;5110560;28;20634;-68
2023/03/02 09:12:01;;;;;;;17.07;11.73;;;8.70;1.00;;;;;;5113130;28;20175;-67
2023/03/02 09:14:26;;;;;;;13.07;10.77;;;8.50;1.00;;;;;;5105125;28;20171;-68
2023/03/02 09:16:53;;;;;;;13.63;10.07;;;8.90;1.00;;;;;;5112877;28;20527;-70
2023/03/02 09:19:19;;;;;;;16.93;10.73;;;8.90;1.00;;;;;;5111267;28;20299;-68
2023/03/02 09:21:44;;;;;;;15.80;11.27;;;9.10;1.00;;;;;;5112791;28;20179;-68
2023/03/02 09:24:10;;;;;;;14.33;11.53;;;9.60;1.00;;;;;;5104258;28;20302;-70
2023/03/02 09:26:37;;;;;;;14.87;11.47;;;9.20;1.00;;;;;;5110084;28;20618;-71
2023/03/02 09:29:04;;;;;;;18.70;11.77;;;9.00;1.00;;;;;;5099658;28;20172;-69
2023/03/02 09:31:29;;;;;;;21.70;12.83;;;9.40;1.00;;;;;;5112214;28;20186;-69
2023/03/02 09:33:55;;;;;;;16.93;11.20;;;9.30;1.00;;;;;;5103740;28;20187;-69
2023/03/02 09:36:23;;;;;;;16.87;12.00;;;9.70;1.00;;;;;;5112262;28;20171;-70
2023/03/02 09:38:49;;;;;;;15.17;11.50;;;9.90;1.00;;;;;;5109871;28;20179;-71
2023/03/02 09:41:20;;;;;;;18.77;12.07;;;10.20;99.90;;;;;;5111715;28;20261;-69
2023/03/02 09:44:07;;;;;;;18.43;11.93;;;10.30;99.90;;;;;;5103214;28;20218;-69
2023/03/02 09:46:45;;;;;;;14.70;11.13;;;10.40;99.90;;;;;;5112492;28;20179;-71
2023/03/02 09:49:28;;;;;;;19.77;13.07;;;10.50;99.90;;;;;;5104416;28;20171;-69
2023/03/02 09:52:25;;;;;;;20.37;13.03;;;10.60;99.90;;;;;;5111793;28;20179;-69
2023/03/02 09:54:50;;;;;;;18.37;13.33;;;10.60;99.90;;;;;;5101524;28;20250;-69
2023/03/02 09:57:28;;;;;;;22.87;13.57;;;11.10;99.90;;;;;;5112300;28;20279;-70
2023/03/02 10:00:01;;;;;;;15.47;12.63;;;10.70;99.90;;;;;;5094268;28;20176;-70
2023/03/02 10:02:36;;;;;;;16.87;11.80;;;10.70;99.90;;;;;;5112637;28;20203;-68
2023/03/02 10:05:13;;;;;;;16.83;11.73;;;10.30;99.90;;;;;;5101637;28;20207;-68
2023/03/02 10:07:38;;;;;;;15.73;12.80;;;9.70;99.90;;;;;;5102531;28;20631;-69
2023/03/02 10:10:36;;;;;;;20.10;13.87;;;9.40;99.90;;;;;;5104601;28;20172;-68
2023/03/02 10:13:12;;;;;;;18.47;13.63;;;9.00;99.90;;;;;;5098143;28;20204;-68
2023/03/02 10:16:00;;;;;;;22.13;15.10;;;9.70;99.90;;;;;;5106568;28;20244;-67
2023/03/02 10:18:48;;;;;;;19.73;14.30;;;10.20;99.90;;;;;;5106969;28;20174;-68
2023/03/02 10:21:40;;;;;;;20.30;14.47;;;10.60;99.90;;;;;;5088339;28;20187;-68
2023/03/02 10:24:19;;;;;;;25.10;16.23;;;10.80;99.90;;;;;;5078202;28;20212;-68
2023/03/02 10:26:49;;;;;;;20.87;14.67;;;11.20;99.90;;;;;;5091940;28;20172;-67
2023/03/02 10:29:44;;;;;;;24.50;15.27;;;10.80;99.90;;;;;;5089475;28;20237;-67
2023/03/02 10:32:21;;;;;;;22.23;15.20;;;9.60;99.90;;;;;;5078472;28;20719;-68
2023/03/02 10:34:48;;;;;;;19.37;14.00;;;10.20;99.90;;;;;;5080761;28;20189;-67
2023/03/02 10:37:20;;;;;;;18.77;13.83;;;10.20;99.90;;;;;;5090675;28;20227;-69
2023/03/02 10:39:46;;;;;;;22.07;15.13;;;10.10;99.90;;;;;;5089699;28;20194;-70
2023/03/02 10:42:24;;;;;;;18.20;14.10;;;10.40;99.90;;;;;;5091407;28;20184;-68
2023/03/02 10:44:54;;;;;;;19.60;14.93;;;10.00;99.90;;;;;;5080923;28;20245;-69
2023/03/02 10:47:25;;;;;;;20.57;14.80;;;10.30;99.90;;;;;;5091209;28;20179;-69
2023/03/02 10:49:53;;;;;;;20.97;14.33;;;10.30;99.90;;;;;;5091086;28;20609;-69
2023/03/02 10:52:23;;;;;;;22.47;15.13;;;9.80;99.90;;;;;;5090766;28;20184;-68
2023/03/02 10:55:00;;;;;;;29.20;15.17;;;10.00;99.90;;;;;;5080807;28;20180;-70
2023/03/02 10:57:40;;;;;;;28.20;15.80;;;10.90;99.90;;;;;;5091199;28;20686;-71
2023/03/02 11:00:20;;;;;;;22.43;15.57;;;10.60;99.90;;;;;;5089655;28;20183;-70
2023/03/02 11:03:00;;;;;;;23.83;15.00;;;11.00;99.90;;;;;;5086331;28;20651;-69
2023/03/02 11:05:38;;;;;;;20.00;15.07;;;10.40;99.90;;;;;;5080705;28;20672;-70
2023/03/02 11:08:17;;;;;;;26.40;15.93;;;10.10;99.90;;;;;;5090101;28;20643;-70
2023/03/02 11:11:00;;;;;;;20.83;14.40;;;10.40;99.90;;;;;;5088223;28;20221;-69
2023/03/02 11:13:31;;;;;;;22.10;14.80;;;10.10;99.90;;;;;;5087808;28;20180;-68
2023/03/02 11:15:59;;;;;;;28.03;16.00;;;9.50;99.90;;;;;;5084744;28;20165;-69
2023/03/02 11:18:38;;;;;;;22.70;15.40;;;10.10;99.90;;;;;;5088912;28;20194;-69
2023/03/02 11:21:27;;;;;;;23.60;15.63;;;10.00;99.90;;;;;;5077286;28;20178;-69
2023/03/02 11:24:03;;;;;;;23.30;14.80;;;10.50;99.90;;;;;;5088490;28;20281;-69
2023/03/02 11:26:34;;;;;;;25.03;15.60;;;10.50;99.90;;;;;;5092159;28;20183;-69
2023/03/02 11:29:08;;;;;;;20.27;15.23;;;10.50;99.90;;;;;;5092584;28;20188;-70
2023/03/02 11:31:45;;;;;;;26.53;16.70;;;10.30;99.90;;;;;;5095299;28;20176;-69
2023/03/02 11:34:24;;;;;;;27.90;17.50;;;11.00;99.90;;;;;;5085931;28;20180;-70
2023/03/02 11:37:04;;;;;;;25.13;14.27;;;10.70;99.90;;;;;;5093810;28;20174;-69
2023/03/02 11:39:48;;;;;;;24.30;15.97;;;10.30;99.90;;;;;;5094605;28;20187;-69
2023/03/02 11:42:28;;;;;;;25.97;16.17;;;10.10;99.90;;;;;;5095396;28;20179;-69
2023/03/02 11:44:54;;;;;;;29.57;16.00;;;10.50;99.90;;;;;;5094509;28;20222;-70
2023/03/02 11:47:21;;;;;;;20.20;14.57;;;10.70;99.90;;;;;;5094028;28;20175;-71
2023/03/02 11:49:55;;;;;;;22.30;14.57;;;10.30;99.90;;;;;;5092169;28;20183;-70
2023/03/02 11:52:25;;;;;;;24.93;16.07;;;9.50;99.90;;;;;;5094308;28;20630;-70
2023/03/02 11:54:59;;;;;;;22.53;16.10;;;9.60;99.90;;;;;;5083241;28;20176;-69
2023/03/02 11:57:27;;;;;;;20.33;15.20;;;9.80;99.90;;;;;;5094407;28;20179;-68
2023/03/02 11:59:55;;;;;;;23.27;15.87;;;9.50;99.90;;;;;;5092440;28;20188;-70
2023/03/02 12:02:21;;;;;;;23.80;16.57;;;9.80;99.90;;;;;;5094077;28;20227;-68
2023/03/02 12:04:47;;;;;;;25.37;16.10;;;9.90;99.90;;;;;;5093277;28;20260;-68
2023/03/02 12:07:21;;;;;;;20.93;14.80;;;10.00;99.90;;;;;;5090662;28;20203;-70
2023/03/02 12:10:30;;;;;;;26.23;16.27;;;10.10;99.90;;;;;;5093722;28;20192;-71
2023/03/02 12:13:11;;;;;;;26.23;16.37;;;10.40;99.90;;;;;;5093481;28;20597;-67
2023/03/02 12:15:40;;;;;;;23.10;15.63;;;10.20;99.90;;;;;;5093144;28;20659;-71
2023/03/02 12:18:15;;;;;;;22.37;15.53;;;10.30;99.90;;;;;;5094156;28;20183;-69
2023/03/02 12:20:41;;;;;;;22.73;14.80;;;10.20;99.90;;;;;;5092762;28;20187;-69
2023/03/02 12:23:22;;;;;;;23.43;15.13;;;10.10;99.90;;;;;;5107264;28;20219;-69
2023/03/02 12:25:59;;;;;;;23.37;16.40;;;9.70;99.90;;;;;;5111734;28;20218;-69
2023/03/02 12:28:32;;;;;;;25.10;15.37;;;9.70;1.00;;;;;;5114003;28;20258;-69
2023/03/02 12:31:19;;;;;;;27.07;15.70;;;9.60;1.00;;;;;;5113122;28;20175;-69
2023/03/02 12:33:48;;;;;;;23.97;15.43;;;9.20;1.00;;;;;;5112730;28;20513;-69
2023/03/02 12:36:24;;;;;;;24.83;15.80;;;9.40;1.00;;;;;;5111667;28;20183;-69
2023/03/02 12:39:03;;;;;;;28.43;16.03;;;9.70;1.00;;;;;;5112473;28;20662;-70
2023/03/02 12:41:54;;;;;;;25.33;16.40;;;9.60;1.00;;;;;;5098484;28;20202;-70
2023/03/02 12:44:46;;;;;;;21.50;13.53;;;9.70;1.00;;;;;;5113449;28;20215;-69
2023/03/02 12:47:25;;;;;;;27.07;16.80;;;9.60;1.00;;;;;;5112312;28;20191;-69